createdAt,value
2023-04-22T00:02:17.339Z,97.89
2023-04-22T00:06:29.184Z,97.34
2023-04-22T00:10:41.155Z,97.20
2023-04-22T00:14:52.826Z,97.24
2023-04-22T00:19:05.532Z,97.14
2023-04-22T00:23:17.390Z,97.06
2023-04-22T00:27:28.984Z,97.46
2023-04-22T00:31:40.713Z,97.13
2023-04-22T00:35:54.649Z,97.34
2023-04-22T00:40:08.297Z,97.37
2023-04-22T00:44:20.009Z,97.36
2023-04-22T00:48:32.080Z,97.61
2023-04-22T00:52:43.832Z,97.78
2023-04-22T00:56:58.981Z,97.94
2023-04-22T01:01:10.756Z,98.02
2023-04-22T01:05:24.311Z,98.27
2023-04-22T01:09:36.792Z,98.42
2023-04-22T01:13:48.309Z,98.44
2023-04-22T01:18:01.163Z,98.85
2023-04-22T01:22:14.074Z,98.50
2023-04-22T01:26:25.937Z,99.00
2023-04-22T01:30:38.657Z,98.91
2023-04-22T01:34:52.699Z,98.84
2023-04-22T01:39:04.700Z,99.17
2023-04-22T01:43:16.321Z,99.09
2023-04-22T01:47:27.961Z,99.12
2023-04-22T01:51:39.960Z,99.14
2023-04-22T01:55:51.680Z,99.31
2023-04-22T02:00:05.677Z,99.51
2023-04-22T02:04:24.075Z,99.63
2023-04-22T02:08:35.828Z,99.78
2023-04-22T02:12:47.568Z,100.00
2023-04-22T02:16:59.374Z,99.72
2023-04-22T02:21:11.044Z,100.00
2023-04-22T02:25:23.326Z,100.00
2023-04-22T02:29:35.561Z,100.00
2023-04-22T02:33:47.303Z,100.00
2023-04-22T02:38:00.792Z,100.00
2023-04-22T02:42:12.495Z,100.00
2023-04-22T02:46:24.146Z,100.00
2023-04-22T02:50:35.853Z,100.00
2023-04-22T02:54:47.622Z,100.00
2023-04-22T02:58:59.370Z,100.00
2023-04-22T03:03:11.976Z,100.00
2023-04-22T03:07:23.781Z,100.00
2023-04-22T03:11:36.139Z,100.00
2023-04-22T03:15:48.307Z,100.00
2023-04-22T03:20:00.531Z,100.00
2023-04-22T03:24:12.446Z,100.00
2023-04-22T03:28:29.734Z,100.00
2023-04-22T03:32:41.483Z,100.00
2023-04-22T03:37:02.171Z,100.00
2023-04-22T03:41:13.908Z,100.00
2023-04-22T03:45:30.404Z,100.00
2023-04-22T03:50:02.956Z,100.00
2023-04-22T03:54:17.429Z,100.00
2023-04-22T03:58:35.743Z,100.00
2023-04-22T04:02:51.164Z,100.00
2023-04-22T04:07:08.424Z,100.00
2023-04-22T04:11:20.676Z,100.00
2023-04-22T04:15:39.258Z,100.00
2023-04-22T04:19:53.064Z,100.00
2023-04-22T04:24:06.646Z,100.00
2023-04-22T04:28:23.044Z,100.00
2023-04-22T04:32:35.866Z,100.00
2023-04-22T04:36:51.666Z,100.00
2023-04-22T04:41:10.744Z,100.00
2023-04-22T04:45:24.239Z,100.00
2023-04-22T04:49:40.598Z,100.00
2023-04-22T04:53:53.228Z,100.00
2023-04-22T04:58:05.142Z,100.00
2023-04-22T05:02:17.078Z,100.00
2023-04-22T05:06:28.964Z,100.00
2023-04-22T05:10:46.714Z,100.00
2023-04-22T05:14:58.833Z,100.00
2023-04-22T05:19:13.909Z,100.00
2023-04-22T05:23:26.963Z,100.00
2023-04-22T05:27:41.661Z,100.00
2023-04-22T05:31:55.145Z,100.00
2023-04-22T05:36:07.420Z,100.00
2023-04-22T05:40:20.377Z,100.00
2023-04-22T05:44:32.185Z,100.00
2023-04-22T05:48:45.188Z,100.00
2023-04-22T05:53:16.869Z,100.00
2023-04-22T05:57:28.786Z,100.00
2023-04-22T06:01:42.197Z,100.00
2023-04-22T06:05:55.265Z,100.00
2023-04-22T06:10:07.797Z,100.00
2023-04-22T06:14:19.494Z,100.00
2023-04-22T06:18:38.006Z,100.00
2023-04-22T06:22:53.184Z,100.00
2023-04-22T06:27:04.970Z,100.00
2023-04-22T06:31:18.173Z,100.00
2023-04-22T06:35:31.495Z,100.00
2023-04-22T06:39:43.250Z,100.00
2023-04-22T06:44:31.237Z,100.00
2023-04-22T06:49:01.748Z,100.00
2023-04-22T06:53:32.241Z,96.74
2023-04-22T06:57:44.131Z,89.87
2023-04-22T07:01:56.099Z,83.02
2023-04-22T07:06:08.426Z,81.66
2023-04-22T07:10:23.323Z,78.57
2023-04-22T07:14:56.764Z,77.19
2023-04-22T07:19:46.162Z,71.91
2023-04-22T07:36:27.452Z,72.04
2023-04-22T07:41:01.861Z,72.07
2023-04-22T07:49:50.344Z,66.23
2023-04-22T07:54:02.873Z,63.92
2023-04-22T07:58:14.837Z,63.97
2023-04-22T08:02:26.852Z,62.29
2023-04-22T08:06:39.016Z,61.77
2023-04-22T08:10:50.977Z,59.91
2023-04-22T08:15:03.522Z,56.79
2023-04-22T08:19:17.988Z,57.22
2023-04-22T08:23:29.884Z,56.21
2023-04-22T08:27:41.747Z,53.04
2023-04-22T08:31:53.684Z,53.93
2023-04-22T08:36:06.172Z,54.59
2023-04-22T08:40:18.190Z,54.52
2023-04-22T08:44:30.467Z,54.04
2023-04-22T08:48:42.325Z,52.97
2023-04-22T08:52:54.260Z,52.24
2023-04-22T08:57:07.888Z,51.66
2023-04-22T09:01:20.154Z,50.39
2023-04-22T09:05:34.431Z,51.08
2023-04-22T09:09:49.294Z,50.61
2023-04-22T09:14:01.175Z,50.38
2023-04-22T09:18:20.878Z,49.34
2023-04-22T09:22:51.378Z,46.91
2023-04-22T09:27:05.176Z,46.94
2023-04-22T09:31:22.098Z,45.15
2023-04-22T09:35:40.178Z,46.96
2023-04-22T09:39:53.171Z,45.04
2023-04-22T09:44:15.199Z,45.33
2023-04-22T09:48:53.483Z,44.80
2023-04-22T09:53:10.861Z,43.78
2023-04-22T09:57:22.651Z,43.07
2023-04-22T10:01:42.093Z,43.25
2023-04-22T10:05:53.915Z,42.98
2023-04-22T10:10:08.938Z,43.76
2023-04-22T10:14:27.425Z,44.58
2023-04-22T10:18:39.889Z,43.53
2023-04-22T10:22:53.841Z,44.34
2023-04-22T10:27:10.666Z,44.17
2023-04-22T10:31:23.388Z,44.20
2023-04-22T10:35:35.875Z,45.69
2023-04-22T10:40:12.140Z,44.04
2023-04-22T10:44:28.298Z,43.05
2023-04-22T10:48:48.692Z,42.16
2023-04-22T10:53:21.216Z,43.27
2023-04-22T10:57:38.235Z,41.75
2023-04-22T11:01:52.733Z,42.84
2023-04-22T11:06:15.244Z,42.25
2023-04-22T11:10:44.568Z,42.11
2023-04-22T11:14:56.655Z,42.72
2023-04-22T11:19:08.654Z,43.92
2023-04-22T11:23:28.670Z,44.25
2023-04-22T11:27:43.727Z,45.50
2023-04-22T11:31:57.724Z,46.81
2023-04-22T11:36:12.767Z,48.95
2023-04-22T11:40:32.767Z,47.70
2023-04-22T11:44:46.182Z,48.90
2023-04-22T11:49:17.075Z,49.37
2023-04-22T11:53:28.886Z,49.72
2023-04-22T11:57:41.099Z,49.30
2023-04-22T12:01:52.860Z,50.02
2023-04-22T12:06:05.240Z,50.48
2023-04-22T12:10:17.036Z,50.97
2023-04-22T12:14:32.807Z,52.09
2023-04-22T12:18:47.583Z,54.41
2023-04-22T12:22:59.275Z,55.47
2023-04-22T12:27:10.929Z,56.34
2023-04-22T12:31:22.847Z,57.08
2023-04-22T12:35:34.802Z,57.49
2023-04-22T12:39:46.639Z,58.23
2023-04-22T12:43:58.439Z,58.96
2023-04-22T12:48:10.452Z,59.55
2023-04-22T12:52:22.288Z,60.09
2023-04-22T12:56:34.046Z,60.61
2023-04-22T13:00:45.879Z,60.44
2023-04-22T13:04:57.638Z,59.77
2023-04-22T13:09:09.502Z,59.13
2023-04-22T13:13:21.274Z,59.23
2023-04-22T13:17:34.175Z,59.71
2023-04-22T13:21:45.868Z,60.83
2023-04-22T13:25:57.595Z,61.72
2023-04-22T13:30:09.925Z,62.68
2023-04-22T13:34:21.656Z,63.47
2023-04-22T13:38:33.461Z,64.73
2023-04-22T13:42:45.276Z,65.79
2023-04-22T13:46:57.185Z,67.19
2023-04-22T13:51:08.963Z,68.72
2023-04-22T13:55:20.811Z,69.35
2023-04-22T13:59:35.796Z,70.12
2023-04-22T14:03:48.540Z,70.76
2023-04-22T14:08:01.198Z,71.24
2023-04-22T14:12:12.997Z,71.54
2023-04-22T14:16:24.738Z,72.12
2023-04-22T14:20:36.664Z,72.42
2023-04-22T14:24:48.815Z,72.37
2023-04-22T14:29:00.699Z,72.80
2023-04-22T14:33:12.597Z,72.73
2023-04-22T14:37:24.256Z,72.80
2023-04-22T14:41:36.041Z,72.53
2023-04-22T14:45:48.030Z,72.61
2023-04-22T14:49:59.957Z,72.68
2023-04-22T14:54:12.151Z,72.42
2023-04-22T14:58:24.027Z,72.27
2023-04-22T15:02:36.044Z,71.97
2023-04-22T15:06:48.000Z,72.33
2023-04-22T15:10:59.940Z,72.40
2023-04-22T15:15:18.798Z,72.47
2023-04-22T15:19:30.666Z,72.85
2023-04-22T15:23:42.270Z,73.39
2023-04-22T15:27:56.478Z,73.33
2023-04-22T15:32:08.072Z,73.57
2023-04-22T15:36:21.609Z,73.74
2023-04-22T15:40:33.170Z,74.02
2023-04-22T15:44:44.762Z,74.23
2023-04-22T15:49:00.359Z,74.43
2023-04-22T15:53:11.936Z,74.53
2023-04-22T15:57:23.505Z,74.81
2023-04-22T16:01:35.457Z,75.45
2023-04-22T16:05:47.040Z,76.10
2023-04-22T16:09:58.653Z,76.63
2023-04-22T16:14:12.099Z,77.11
2023-04-22T16:18:24.015Z,77.64
2023-04-22T16:22:35.662Z,77.61
2023-04-22T16:26:47.388Z,77.85
2023-04-22T16:30:59.006Z,78.39
2023-04-22T16:35:11.209Z,78.41
2023-04-22T16:39:22.874Z,78.76
2023-04-22T16:43:34.485Z,79.48
2023-04-22T16:47:46.123Z,79.60
2023-04-22T16:51:57.770Z,79.55
2023-04-22T16:56:09.359Z,79.88
2023-04-22T17:00:21.097Z,79.97
2023-04-22T17:04:33.019Z,80.67
2023-04-22T17:08:44.741Z,81.30
2023-04-22T17:12:56.440Z,81.50
2023-04-22T17:17:08.014Z,82.08
2023-04-22T17:21:19.808Z,82.04
2023-04-22T17:25:31.408Z,82.11
2023-04-22T17:29:43.215Z,82.67
2023-04-22T17:33:54.878Z,83.14
2023-04-22T17:38:06.544Z,83.52
2023-04-22T17:42:18.869Z,83.71
2023-04-22T17:46:30.510Z,84.48
2023-04-22T17:50:42.331Z,84.35
2023-04-22T17:54:53.961Z,84.52
2023-04-22T17:59:05.601Z,84.02
2023-04-22T18:03:20.102Z,83.61
2023-04-22T18:07:31.820Z,83.48
2023-04-22T18:11:43.461Z,83.49
2023-04-22T18:15:54.978Z,83.00
2023-04-22T18:20:17.542Z,83.38
2023-04-22T18:24:30.101Z,83.25
2023-04-22T18:28:43.435Z,83.63
2023-04-22T18:32:55.373Z,83.53
2023-04-22T18:37:07.298Z,82.96
2023-04-22T18:41:19.027Z,83.14
2023-04-22T18:45:30.657Z,82.67
2023-04-22T18:49:42.259Z,82.92
2023-04-22T18:53:53.923Z,83.01
2023-04-22T18:58:05.606Z,83.35
2023-04-22T19:02:17.265Z,83.11
2023-04-22T19:06:28.975Z,83.19
2023-04-22T19:10:40.649Z,83.41
2023-04-22T19:14:52.201Z,83.27
2023-04-22T19:19:03.822Z,83.23
2023-04-22T19:23:15.657Z,82.95
2023-04-22T19:27:27.190Z,83.31
2023-04-22T19:31:38.882Z,83.02
2023-04-22T19:35:50.645Z,83.04
2023-04-22T19:40:02.264Z,82.85
2023-04-22T19:44:13.852Z,82.52
2023-04-22T19:48:25.798Z,82.80
2023-04-22T19:52:40.340Z,83.32
2023-04-22T19:56:53.422Z,83.40
2023-04-22T20:01:05.323Z,83.22
2023-04-22T20:05:18.506Z,82.75
2023-04-22T20:09:32.944Z,83.21
2023-04-22T20:13:45.762Z,83.23
2023-04-22T20:17:59.156Z,82.68
2023-04-22T20:22:14.702Z,82.62
2023-04-22T20:26:26.761Z,83.13
2023-04-22T20:30:38.825Z,83.22
2023-04-22T20:34:50.744Z,83.15
2023-04-22T20:39:05.165Z,82.96
2023-04-22T20:43:16.807Z,83.36
2023-04-22T20:47:28.414Z,83.50
2023-04-22T20:51:40.492Z,83.27
2023-04-22T20:55:52.063Z,83.12
2023-04-22T21:00:29.153Z,83.59
2023-04-22T21:04:41.776Z,83.67
2023-04-22T21:08:54.765Z,83.40
2023-04-22T21:13:06.568Z,83.79
2023-04-22T21:17:25.255Z,83.57
2023-04-22T21:21:44.080Z,83.73
2023-04-22T21:26:05.298Z,83.60
2023-04-22T21:30:48.809Z,83.95
2023-04-22T21:41:15.462Z,83.79
2023-04-22T21:45:52.280Z,84.26
2023-04-22T21:50:05.079Z,84.07
2023-04-22T21:54:17.075Z,84.13
2023-04-22T21:58:28.748Z,84.68
2023-04-22T22:02:40.721Z,84.34
2023-04-22T22:06:52.548Z,84.52
2023-04-22T22:11:07.019Z,84.44
2023-04-22T22:15:20.420Z,84.67
2023-04-22T22:19:32.204Z,84.57
2023-04-22T22:23:43.992Z,84.67
2023-04-22T22:27:55.781Z,84.58
2023-04-22T22:32:07.712Z,84.84
2023-04-22T22:36:19.903Z,84.89
2023-04-22T22:40:31.753Z,85.15
2023-04-22T22:44:43.689Z,85.40
2023-04-22T22:48:55.597Z,85.18
2023-04-22T22:53:07.265Z,85.51
2023-04-22T22:57:18.917Z,85.65
2023-04-22T23:01:30.801Z,86.10
2023-04-22T23:05:42.537Z,85.91
2023-04-22T23:09:54.184Z,86.19
2023-04-22T23:14:05.953Z,86.17
2023-04-22T23:18:17.668Z,86.48
2023-04-22T23:22:30.991Z,86.37
2023-04-22T23:26:43.275Z,86.70
2023-04-22T23:30:56.254Z,86.45
2023-04-22T23:35:10.897Z,86.61
2023-04-22T23:39:22.523Z,86.67
2023-04-22T23:43:34.259Z,86.80
2023-04-22T23:47:46.043Z,86.85
2023-04-22T23:51:57.874Z,86.85
2023-04-22T23:56:10.332Z,86.94
